createdAt,value
2023-04-02T00:02:30.799Z,98867.66
2023-04-02T00:05:16.726Z,98874.84
2023-04-02T00:07:44.752Z,98864.16
2023-04-02T00:10:28.683Z,98877.50
2023-04-02T00:13:18.745Z,98872.16
2023-04-02T00:15:47.088Z,98869.03
2023-04-02T00:18:16.346Z,98884.22
2023-04-02T00:20:46.792Z,98885.22
2023-04-02T00:23:14.272Z,98883.06
2023-04-02T00:25:45.493Z,98886.88
2023-04-02T00:28:14.051Z,98884.72
2023-04-02T00:30:53.018Z,98882.38
2023-04-02T00:33:21.705Z,98880.03
2023-04-02T00:35:50.793Z,98891.56
2023-04-02T00:38:20.813Z,98891.06
2023-04-02T00:40:48.047Z,98893.91
2023-04-02T00:43:16.754Z,98896.25
2023-04-02T00:45:50.791Z,98898.72
2023-04-02T00:48:25.883Z,98898.09
2023-04-02T00:50:54.318Z,98900.56
2023-04-02T00:53:27.278Z,98894.91
2023-04-02T00:55:56.080Z,98906.41
2023-04-02T00:58:26.380Z,98907.41
2023-04-02T01:00:54.432Z,98909.25
2023-04-02T01:03:22.993Z,98908.25
2023-04-02T01:05:56.002Z,98905.94
2023-04-02T01:08:23.088Z,98908.41
2023-04-02T01:11:02.377Z,98911.28
2023-04-02T01:13:55.247Z,98908.25
2023-04-02T01:16:39.026Z,98914.59
2023-04-02T01:19:29.127Z,98916.94
2023-04-02T01:22:01.544Z,98905.09
2023-04-02T01:24:33.580Z,98921.59
2023-04-02T01:27:02.963Z,98919.94
2023-04-02T01:29:30.059Z,98923.78
2023-04-02T01:32:00.106Z,98918.91
2023-04-02T01:34:28.384Z,98917.59
2023-04-02T01:37:01.371Z,98927.47
2023-04-02T01:39:34.487Z,98930.13
2023-04-02T01:42:01.511Z,98923.44
2023-04-02T01:44:40.635Z,98932.78
2023-04-02T01:47:11.264Z,98924.41
2023-04-02T01:49:40.237Z,98933.25
2023-04-02T01:52:07.623Z,98936.31
2023-04-02T01:54:40.728Z,98946.16
2023-04-02T01:57:08.481Z,98931.59
2023-04-02T01:59:35.833Z,98940.41
2023-04-02T02:02:11.985Z,98942.28
2023-04-02T02:04:40.935Z,98947.97
2023-04-02T02:07:14.436Z,98946.44
2023-04-02T02:09:43.701Z,98951.47
2023-04-02T02:12:14.969Z,98955.00
2023-04-02T02:14:52.316Z,98960.34
2023-04-02T02:17:27.276Z,98944.47
2023-04-02T02:19:56.866Z,98962.31
2023-04-02T02:22:32.315Z,98965.13
2023-04-02T02:25:00.761Z,98956.28
2023-04-02T02:27:28.096Z,98965.28
2023-04-02T02:30:10.520Z,98965.84
2023-04-02T02:32:41.230Z,98968.97
2023-04-02T02:35:12.727Z,98970.81
2023-04-02T02:37:43.340Z,98969.78
2023-04-02T02:40:15.992Z,98969.78
2023-04-02T02:42:48.077Z,98973.97
2023-04-02T02:45:18.166Z,98973.63
2023-04-02T02:47:46.119Z,98976.47
2023-04-02T02:50:20.342Z,98978.31
2023-04-02T02:52:52.190Z,98986.31
2023-04-02T02:55:22.751Z,98980.81
2023-04-02T02:58:04.778Z,98979.97
2023-04-02T03:00:38.367Z,98978.31
2023-04-02T03:03:08.712Z,98993.47
2023-04-02T03:05:38.134Z,98990.81
2023-04-02T03:08:15.521Z,98989.97
2023-04-02T03:10:45.564Z,98993.00
2023-04-02T03:13:25.591Z,99000.00
2023-04-02T03:15:56.039Z,98995.81
2023-04-02T03:18:27.192Z,99002.00
2023-04-02T03:21:13.204Z,99002.00
2023-04-02T03:23:44.397Z,99000.00
2023-04-02T03:26:15.489Z,99005.66
2023-04-02T03:28:47.930Z,99010.31
2023-04-02T03:31:19.900Z,99019.31
2023-04-02T03:33:50.504Z,99014.97
2023-04-02T03:36:51.079Z,99025.66
2023-04-02T03:39:22.712Z,99005.66
2023-04-02T03:41:55.119Z,99026.34
2023-04-02T03:44:28.111Z,99018.31
2023-04-02T03:47:06.056Z,99019.16
2023-04-02T03:49:37.069Z,99026.00
2023-04-02T03:52:12.238Z,99031.50
2023-04-02T03:54:40.931Z,99023.16
2023-04-02T03:57:36.891Z,99027.50
2023-04-02T04:00:16.487Z,99034.69
2023-04-02T04:02:46.648Z,99033.84
2023-04-02T04:05:28.639Z,99045.34
2023-04-02T04:08:00.708Z,99044.34
2023-04-02T04:10:28.230Z,99064.38
2023-04-02T04:12:57.386Z,99061.56
2023-04-02T04:15:27.340Z,99054.34
2023-04-02T04:17:58.007Z,99060.69
2023-04-02T04:20:37.769Z,99059.69
2023-04-02T04:23:09.616Z,99062.88
2023-04-02T04:25:37.208Z,99064.88
2023-04-02T04:28:13.818Z,99064.69
2023-04-02T04:30:50.977Z,99056.50
2023-04-02T04:33:23.266Z,99064.50
2023-04-02T04:35:59.153Z,99067.03
2023-04-02T04:38:28.613Z,99067.84
2023-04-02T04:40:59.998Z,99073.69
2023-04-02T04:43:34.880Z,99077.53
2023-04-02T04:46:25.533Z,99084.38
2023-04-02T04:49:04.429Z,99067.19
2023-04-02T04:51:42.854Z,99087.53
2023-04-02T04:54:14.599Z,99083.34
2023-04-02T04:56:49.148Z,99087.53
2023-04-02T04:59:21.855Z,99093.03
2023-04-02T05:01:52.899Z,99087.88
2023-04-02T05:04:28.112Z,99093.72
2023-04-02T05:07:00.487Z,99095.03
2023-04-02T05:09:42.723Z,99104.38
2023-04-02T05:12:20.175Z,99093.03
2023-04-02T05:14:50.671Z,99100.72
2023-04-02T05:17:21.670Z,99115.91
2023-04-02T05:19:53.734Z,99118.25
2023-04-02T05:22:30.067Z,99108.72
2023-04-02T05:25:09.536Z,99120.09
2023-04-02T05:27:53.320Z,99119.06
2023-04-02T05:30:20.759Z,99117.09
2023-04-02T05:32:54.410Z,99122.06
2023-04-02T05:35:25.476Z,99125.59
2023-04-02T05:37:53.261Z,99127.72
2023-04-02T05:40:28.625Z,99135.72
2023-04-02T05:42:57.160Z,99123.91
2023-04-02T05:45:34.569Z,99138.09
2023-04-02T05:48:07.281Z,99129.75
2023-04-02T05:50:44.151Z,99139.28
2023-04-02T05:53:34.440Z,99137.59
2023-04-02T05:56:11.289Z,99142.78
2023-04-02T05:58:44.048Z,99141.09
2023-04-02T06:01:24.120Z,99140.63
2023-04-02T06:04:06.809Z,99151.47
2023-04-02T06:07:06.017Z,99151.13
2023-04-02T06:09:46.595Z,99138.81
2023-04-02T06:12:37.772Z,99143.31
2023-04-02T06:15:12.111Z,99139.47
2023-04-02T06:17:46.621Z,99160.81
2023-04-02T06:20:18.234Z,99153.66
2023-04-02T06:22:52.050Z,99160.66
2023-04-02T06:25:25.812Z,99165.16
2023-04-02T06:27:56.467Z,99165.84
2023-04-02T06:30:28.281Z,99172.88
2023-04-02T06:32:56.516Z,99186.72
2023-04-02T06:35:25.034Z,99178.84
2023-04-02T06:38:00.599Z,99181.25
2023-04-02T06:40:46.373Z,99181.94
2023-04-02T06:43:22.337Z,99168.59
2023-04-02T06:46:11.119Z,99177.59
2023-04-02T06:48:59.330Z,99180.94
2023-04-02T06:51:28.427Z,99188.13
2023-04-02T06:53:56.288Z,99191.78
2023-04-02T06:56:43.574Z,99206.63
2023-04-02T06:59:14.445Z,99197.31
2023-04-02T07:01:48.932Z,99206.00
2023-04-02T07:04:17.853Z,99202.16
2023-04-02T07:06:46.187Z,99203.81
2023-04-02T07:09:14.882Z,99210.69
2023-04-02T07:11:46.430Z,99216.53
2023-04-02T07:14:13.920Z,99212.03
2023-04-02T07:16:42.499Z,99218.22
2023-04-02T07:19:21.780Z,99221.22
2023-04-02T07:21:52.202Z,99211.72
2023-04-02T07:24:21.196Z,99222.25
2023-04-02T07:26:48.386Z,99227.59
2023-04-02T07:29:16.836Z,99226.41
2023-04-02T07:31:43.952Z,99227.94
2023-04-02T07:34:11.170Z,99235.25
2023-04-02T07:36:38.250Z,99226.09
2023-04-02T07:39:05.400Z,99229.94
2023-04-02T07:41:32.486Z,99230.63
2023-04-02T07:43:59.636Z,99226.97
2023-04-02T07:46:26.898Z,99232.50
2023-04-02T07:48:54.006Z,99242.69
2023-04-02T07:51:23.009Z,99237.19
2023-04-02T07:53:50.691Z,99243.88
2023-04-02T07:56:19.459Z,99252.25
2023-04-02T07:58:46.925Z,99256.59
2023-04-02T08:01:18.842Z,99264.13
2023-04-02T08:03:46.483Z,99261.94
2023-04-02T08:06:13.709Z,99275.00
2023-04-02T08:08:41.085Z,99278.69
2023-04-02T08:11:08.390Z,99278.84
2023-04-02T08:13:35.704Z,99293.03
2023-04-02T08:16:03.667Z,99292.06
2023-04-02T08:18:30.902Z,99284.03
2023-04-02T08:20:58.207Z,99290.38
2023-04-02T08:23:26.062Z,99290.38
2023-04-02T08:25:53.912Z,99292.72
2023-04-02T08:28:21.528Z,99304.06
2023-04-02T08:30:52.666Z,99301.09
2023-04-02T08:33:20.040Z,99297.41
2023-04-02T08:35:48.077Z,99308.81
2023-04-02T08:38:16.325Z,99309.13
2023-04-02T08:40:48.926Z,99323.84
2023-04-02T08:43:18.798Z,99326.88
2023-04-02T08:46:04.516Z,99320.88
2023-04-02T08:48:33.638Z,99319.88
2023-04-02T08:51:02.063Z,99332.91
2023-04-02T08:53:31.205Z,99341.94
2023-04-02T08:56:19.019Z,99345.28
2023-04-02T08:58:46.126Z,99340.13
2023-04-02T09:01:21.568Z,99360.53
2023-04-02T09:03:50.450Z,99359.53
2023-04-02T09:06:19.220Z,99365.06
2023-04-02T09:08:47.771Z,99371.09
2023-04-02T09:11:21.608Z,99366.38
2023-04-02T09:13:51.286Z,99379.28
2023-04-02T09:16:22.798Z,99370.09
2023-04-02T09:18:52.535Z,99373.09
2023-04-02T09:21:23.311Z,99376.94
2023-04-02T09:23:50.577Z,99383.13
2023-04-02T09:26:20.688Z,99383.97
2023-04-02T09:28:48.614Z,99391.69
2023-04-02T09:31:21.471Z,99403.88
2023-04-02T09:33:54.592Z,99401.88
2023-04-02T09:36:51.142Z,99400.53
2023-04-02T09:39:19.559Z,99395.38
2023-04-02T09:41:58.747Z,99409.25
2023-04-02T09:44:32.440Z,99401.91
2023-04-02T09:47:07.559Z,99421.13
2023-04-02T09:49:36.205Z,99427.69
2023-04-02T09:52:07.721Z,99436.38
2023-04-02T09:54:41.815Z,99437.03
2023-04-02T09:57:24.832Z,99427.84
2023-04-02T10:00:10.417Z,99439.56
2023-04-02T10:02:46.642Z,99434.06
2023-04-02T10:05:30.057Z,99441.91
2023-04-02T10:08:08.595Z,99433.69
2023-04-02T10:10:36.373Z,99449.09
2023-04-02T10:13:16.325Z,99443.75
2023-04-02T10:15:49.357Z,99445.41
2023-04-02T10:18:23.067Z,99456.47
2023-04-02T10:20:51.954Z,99450.59
2023-04-02T10:23:19.623Z,99447.91
2023-04-02T10:25:55.862Z,99445.72
2023-04-02T10:28:38.484Z,99451.09
2023-04-02T10:31:10.016Z,99449.91
2023-04-02T10:33:37.390Z,99455.13
2023-04-02T10:36:25.082Z,99466.97
2023-04-02T10:39:00.934Z,99432.47
2023-04-02T10:41:33.057Z,99447.31
2023-04-02T10:44:20.438Z,99448.16
2023-04-02T10:46:47.840Z,99440.63
2023-04-02T10:49:34.656Z,99466.06
2023-04-02T10:52:13.497Z,99467.78
2023-04-02T10:54:46.898Z,99472.63
2023-04-02T10:57:13.952Z,99475.94
2023-04-02T10:59:44.975Z,99480.50
2023-04-02T11:02:32.524Z,99486.19
2023-04-02T11:05:03.421Z,99472.81
2023-04-02T11:07:32.399Z,99487.19
2023-04-02T11:10:00.865Z,99485.81
2023-04-02T11:12:34.553Z,99488.31
2023-04-02T11:15:02.861Z,99488.13
2023-04-02T11:17:30.032Z,99494.16
2023-04-02T11:20:17.055Z,99483.56
2023-04-02T11:22:44.191Z,99471.34
2023-04-02T11:25:21.343Z,99479.44
2023-04-02T11:27:48.492Z,99481.47
2023-04-02T11:30:15.863Z,99486.47
2023-04-02T11:32:45.341Z,99489.16
2023-04-02T11:35:27.397Z,99492.66
2023-04-02T11:37:55.725Z,99481.44
2023-04-02T11:40:41.179Z,99506.06
2023-04-02T11:43:28.558Z,99494.38
2023-04-02T11:45:57.355Z,99499.69
2023-04-02T11:48:27.703Z,99515.72
2023-04-02T11:50:55.092Z,99526.72
2023-04-02T11:53:24.480Z,99527.78
2023-04-02T11:55:58.746Z,99532.47
2023-04-02T11:58:44.893Z,99527.09
2023-04-02T12:01:12.017Z,99520.41
2023-04-02T12:03:42.434Z,99524.00
2023-04-02T12:06:25.714Z,99524.34
2023-04-02T12:09:14.721Z,99528.66
2023-04-02T12:11:42.692Z,99527.22
2023-04-02T12:14:31.002Z,99536.38
2023-04-02T12:16:58.629Z,99523.50
2023-04-02T12:19:25.991Z,99543.72
2023-04-02T12:21:53.840Z,99553.06
2023-04-02T12:24:22.348Z,99542.16
2023-04-02T12:27:06.554Z,99539.28
2023-04-02T12:29:33.657Z,99532.41
2023-04-02T12:32:00.924Z,99549.56
2023-04-02T12:34:29.507Z,99548.31
2023-04-02T12:37:04.377Z,99550.34
2023-04-02T12:39:33.192Z,99549.00
2023-04-02T12:42:00.591Z,99558.06
2023-04-02T12:44:28.772Z,99563.19
2023-04-02T12:46:56.171Z,99566.88
2023-04-02T12:49:31.204Z,99564.44
2023-04-02T12:51:58.939Z,99561.59
2023-04-02T12:54:26.058Z,99570.78
2023-04-02T12:56:53.171Z,99572.91
2023-04-02T12:59:31.033Z,99584.88
2023-04-02T13:02:00.172Z,99583.59
2023-04-02T13:04:27.551Z,99590.91
2023-04-02T13:06:55.845Z,99589.38
2023-04-02T13:09:28.753Z,99592.06
2023-04-02T13:11:56.090Z,99580.84
2023-04-02T13:14:24.255Z,99589.69
2023-04-02T13:16:51.543Z,99587.72
2023-04-02T13:19:36.827Z,99601.75
2023-04-02T13:22:04.151Z,99600.22
2023-04-02T13:24:32.555Z,99606.19
2023-04-02T13:27:01.131Z,99623.66
2023-04-02T13:29:28.447Z,99619.69
2023-04-02T13:32:01.160Z,99624.88
2023-04-02T13:34:28.462Z,99625.13
2023-04-02T13:36:55.612Z,99616.66
2023-04-02T13:39:22.901Z,99630.94
2023-04-02T13:41:52.264Z,99626.44
2023-04-02T13:44:23.648Z,99627.41
2023-04-02T13:46:51.245Z,99630.38
2023-04-02T13:49:18.458Z,99630.72
2023-04-02T13:51:47.082Z,99617.03
2023-04-02T13:54:16.925Z,99612.59
2023-04-02T13:56:44.077Z,99606.03
2023-04-02T13:59:11.216Z,99621.75
2023-04-02T14:01:38.746Z,99611.38
2023-04-02T14:04:06.382Z,99620.53
2023-04-02T14:06:49.254Z,99622.16
2023-04-02T14:09:29.651Z,99614.34
2023-04-02T14:11:56.726Z,99627.56
2023-04-02T14:14:42.391Z,99629.84
2023-04-02T14:17:18.493Z,99626.16
2023-04-02T14:19:45.696Z,99632.66
2023-04-02T14:22:18.979Z,99640.69
2023-04-02T14:25:03.019Z,99645.13
2023-04-02T14:27:37.424Z,99626.78
2023-04-02T14:30:20.768Z,99622.88
2023-04-02T14:32:56.906Z,99620.69
2023-04-02T14:35:38.147Z,99640.09
2023-04-02T14:38:10.453Z,99629.00
2023-04-02T14:40:40.778Z,99647.69
2023-04-02T14:43:16.392Z,99633.50
2023-04-02T14:45:43.453Z,99640.22
2023-04-02T14:48:21.279Z,99635.78
2023-04-02T14:50:49.767Z,99631.06
2023-04-02T14:53:29.092Z,99635.69
2023-04-02T14:55:57.645Z,99623.66
2023-04-02T14:58:27.563Z,99643.19
2023-04-02T15:00:59.633Z,99643.47
2023-04-02T15:03:30.350Z,99648.91
2023-04-02T15:05:59.865Z,99654.94
2023-04-02T15:08:32.749Z,99651.75
2023-04-02T15:11:05.724Z,99649.94
2023-04-02T15:13:38.261Z,99637.47
2023-04-02T15:16:09.583Z,99639.88
2023-04-02T15:18:38.500Z,99654.75
2023-04-02T15:21:08.639Z,99654.47
2023-04-02T15:23:42.062Z,99658.13
2023-04-02T15:26:21.884Z,99669.06
2023-04-02T15:29:27.818Z,99664.03
2023-04-02T15:32:00.875Z,99642.28
2023-04-02T15:34:34.754Z,99657.03
2023-04-02T15:37:08.123Z,99663.19
2023-04-02T15:39:38.295Z,99669.78
2023-04-02T15:42:24.178Z,99662.06
2023-04-02T15:44:59.482Z,99659.69
2023-04-02T15:47:51.901Z,99661.81
2023-04-02T15:50:54.764Z,99661.81
2023-04-02T15:53:35.744Z,99653.94
2023-04-02T15:56:16.158Z,99662.50
2023-04-02T15:58:56.253Z,99675.41
2023-04-02T16:01:23.301Z,99665.03
2023-04-02T16:04:02.608Z,99685.63
2023-04-02T16:06:30.012Z,99681.00
2023-04-02T16:09:03.185Z,99683.09
2023-04-02T16:11:30.426Z,99692.09
2023-04-02T16:14:15.807Z,99690.13
2023-04-02T16:16:46.664Z,99669.06
2023-04-02T16:19:20.937Z,99690.09
2023-04-02T16:21:51.234Z,99691.75
2023-04-02T16:24:18.383Z,99693.41
2023-04-02T16:26:54.331Z,99694.97
2023-04-02T16:29:27.428Z,99697.09
2023-04-02T16:32:00.844Z,99699.03
2023-04-02T16:34:46.825Z,99699.31
2023-04-02T16:37:20.990Z,99704.34
2023-04-02T16:40:03.478Z,99712.63
2023-04-02T16:42:53.287Z,99709.09
2023-04-02T16:45:29.743Z,99712.72
2023-04-02T16:47:56.903Z,99723.53
2023-04-02T16:50:24.377Z,99732.09
2023-04-02T16:53:03.564Z,99732.63
2023-04-02T16:55:38.398Z,99721.38
2023-04-02T16:58:29.254Z,99724.16
2023-04-02T17:01:00.924Z,99726.88
2023-04-02T17:03:47.643Z,99732.44
2023-04-02T17:06:14.776Z,99722.59
2023-04-02T17:08:43.422Z,99745.34
2023-04-02T17:11:24.290Z,99735.22
2023-04-02T17:14:06.264Z,99730.03
2023-04-02T17:16:41.344Z,99737.28
2023-04-02T17:19:15.665Z,99746.25
2023-04-02T17:21:47.227Z,99744.00
2023-04-02T17:24:17.197Z,99749.31
2023-04-02T17:26:50.860Z,99753.38
2023-04-02T17:29:20.631Z,99755.84
2023-04-02T17:31:48.844Z,99763.16
2023-04-02T17:34:17.447Z,99756.41
2023-04-02T17:37:03.762Z,99766.00
2023-04-02T17:39:41.795Z,99748.03
2023-04-02T17:42:18.159Z,99762.59
2023-04-02T17:44:48.060Z,99765.97
2023-04-02T17:47:33.752Z,99770.38
2023-04-02T17:50:18.471Z,99764.22
2023-04-02T17:52:53.308Z,99765.19
2023-04-02T17:55:23.309Z,99775.94
2023-04-02T17:57:55.275Z,99783.78
2023-04-02T18:00:31.454Z,99796.72
2023-04-02T18:03:19.481Z,99792.03
2023-04-02T18:05:53.023Z,99794.19
2023-04-02T18:08:38.630Z,99801.72
2023-04-02T18:11:24.435Z,99800.03
2023-04-02T18:14:11.087Z,99796.56
2023-04-02T18:17:07.606Z,99801.34
2023-04-02T18:19:44.012Z,99801.34
2023-04-02T18:22:19.449Z,99812.00
2023-04-02T18:25:05.637Z,99813.88
2023-04-02T18:27:41.774Z,99820.97
2023-04-02T18:30:11.420Z,99827.56
2023-04-02T18:32:47.844Z,99829.16
2023-04-02T18:35:17.813Z,99836.22
2023-04-02T18:37:57.790Z,99849.50
2023-04-02T18:40:27.917Z,99840.34
2023-04-02T18:43:13.202Z,99847.13
2023-04-02T18:45:51.676Z,99839.69
2023-04-02T18:48:29.403Z,99842.13
2023-04-02T18:50:58.909Z,99863.81
2023-04-02T18:53:26.350Z,99849.22
2023-04-02T18:55:57.863Z,99844.81
2023-04-02T18:58:28.532Z,99854.47
2023-04-02T19:00:56.053Z,99851.47
2023-04-02T19:03:27.907Z,99874.50
2023-04-02T19:06:05.952Z,99869.78
2023-04-02T19:08:33.110Z,99850.38
2023-04-02T19:11:09.214Z,99871.25
2023-04-02T19:13:36.266Z,99853.53
2023-04-02T19:16:22.931Z,99870.41
2023-04-02T19:19:11.654Z,99861.84
2023-04-02T19:21:51.500Z,99854.50
2023-04-02T19:24:19.075Z,99884.41
2023-04-02T19:27:09.222Z,99887.81
2023-04-02T19:29:53.508Z,99860.91
2023-04-02T19:32:42.128Z,99876.34
2023-04-02T19:35:39.132Z,99878.63
2023-04-02T19:38:25.597Z,99875.25
2023-04-02T19:40:58.692Z,99890.13
2023-04-02T19:43:26.077Z,99880.69
2023-04-02T19:45:54.528Z,99903.03
2023-04-02T19:48:24.399Z,99896.47
2023-04-02T19:50:51.647Z,99888.75
2023-04-02T19:53:19.018Z,99906.88
2023-04-02T19:55:46.396Z,99909.31
2023-04-02T19:58:20.469Z,99904.34
2023-04-02T20:00:47.661Z,99900.59
2023-04-02T20:03:14.922Z,99919.41
2023-04-02T20:05:42.167Z,99888.97
2023-04-02T20:08:10.387Z,99909.97
2023-04-02T20:10:37.843Z,99911.94
2023-04-02T20:13:05.108Z,99919.41
2023-04-02T20:15:32.484Z,99905.03
2023-04-02T20:17:59.535Z,99908.50
2023-04-02T20:20:27.222Z,99899.31
2023-04-02T20:22:54.259Z,99904.41
2023-04-02T20:25:21.511Z,99922.41
2023-04-02T20:27:48.606Z,99909.50
2023-04-02T20:30:15.915Z,99911.03
2023-04-02T20:32:43.094Z,99919.00
2023-04-02T20:35:10.403Z,99921.56
2023-04-02T20:37:39.436Z,99897.72
2023-04-02T20:40:06.945Z,99909.19
2023-04-02T20:42:34.053Z,99903.88
2023-04-02T20:45:01.205Z,99908.22
2023-04-02T20:47:28.313Z,99918.47
2023-04-02T20:49:55.440Z,99909.44
2023-04-02T20:52:23.196Z,99902.66
2023-04-02T20:54:50.641Z,99891.94
2023-04-02T20:57:21.645Z,99916.28
2023-04-02T20:59:48.869Z,99898.31
2023-04-02T21:02:16.232Z,99885.88
2023-04-02T21:04:43.404Z,99899.06
2023-04-02T21:07:10.574Z,99903.28
2023-04-02T21:09:37.655Z,99881.44
2023-04-02T21:12:04.844Z,99880.78
2023-04-02T21:14:36.188Z,99876.44
2023-04-02T21:17:03.402Z,99877.56
2023-04-02T21:19:32.742Z,99884.09
2023-04-02T21:21:59.908Z,99877.75
2023-04-02T21:24:27.068Z,99886.22
2023-04-02T21:26:54.184Z,99885.78
2023-04-02T21:29:21.259Z,99891.56
2023-04-02T21:31:48.383Z,99884.09
2023-04-02T21:34:16.369Z,99876.34
2023-04-02T21:36:44.618Z,99871.88
2023-04-02T21:39:15.982Z,99885.03
2023-04-02T21:41:43.970Z,99879.25
2023-04-02T21:44:13.735Z,99874.16
2023-04-02T21:46:44.142Z,99873.31
2023-04-02T21:49:16.265Z,99875.00
2023-04-02T21:51:44.429Z,99871.53
2023-04-02T21:54:11.976Z,99866.31
2023-04-02T21:56:40.588Z,99869.31
2023-04-02T21:59:08.537Z,99863.28
2023-04-02T22:01:37.605Z,99862.53
2023-04-02T22:04:05.793Z,99858.44
2023-04-02T22:06:36.121Z,99859.41
2023-04-02T22:09:05.313Z,99861.59
2023-04-02T22:11:34.970Z,99863.91
2023-04-02T22:14:05.843Z,99838.78
2023-04-02T22:16:34.260Z,99855.59
2023-04-02T22:19:02.069Z,99846.03
2023-04-02T22:21:30.750Z,99850.72
2023-04-02T22:24:01.760Z,99842.78
2023-04-02T22:26:29.381Z,99833.84
2023-04-02T22:28:56.602Z,99834.44
2023-04-02T22:31:25.120Z,99834.91
2023-04-02T22:33:53.015Z,99838.22
2023-04-02T22:36:20.861Z,99830.38
2023-04-02T22:38:48.360Z,99848.31
2023-04-02T22:41:17.281Z,99823.00
2023-04-02T22:43:45.453Z,99822.53
2023-04-02T22:46:13.794Z,99831.72
2023-04-02T22:48:41.437Z,99809.88
2023-04-02T22:51:09.921Z,99800.56
2023-04-02T22:53:37.028Z,99815.78
2023-04-02T22:56:08.133Z,99827.81
2023-04-02T22:58:35.669Z,99814.56
2023-04-02T23:01:06.484Z,99807.56
2023-04-02T23:03:34.047Z,99810.69
2023-04-02T23:06:02.059Z,99812.84
2023-04-02T23:08:29.208Z,99801.78
2023-04-02T23:11:00.317Z,99796.94
2023-04-02T23:13:27.500Z,99789.84
2023-04-02T23:15:54.697Z,99784.00
2023-04-02T23:18:22.374Z,99792.88
2023-04-02T23:20:49.523Z,99778.84
2023-04-02T23:23:16.577Z,99790.69
2023-04-02T23:25:43.648Z,99778.84
2023-04-02T23:28:12.074Z,99785.59
2023-04-02T23:30:40.777Z,99776.31
2023-04-02T23:33:07.955Z,99780.69
2023-04-02T23:35:35.714Z,99762.56
2023-04-02T23:38:02.806Z,99782.84
2023-04-02T23:40:29.998Z,99777.88
2023-04-02T23:42:57.067Z,99772.81
2023-04-02T23:45:24.199Z,99765.84
2023-04-02T23:47:51.625Z,99761.88
2023-04-02T23:50:18.761Z,99751.09
2023-04-02T23:52:45.925Z,99753.06
2023-04-02T23:55:13.412Z,99760.44
2023-04-02T23:57:40.617Z,99752.59
